LCGO2: Spring Creek Locust Grove, OK

Data processed at Tue May 21 2019 21:10


All information presented herein is the property of the government of the United States of America and may be revised or deleted at any time without prior notice.
Dissemination of this information without the expressed written consent of the Public Affairs Office, Tulsa District U.S. Army Corps of Engineers is strictly prohibited.
These data are gathered electronically and, as presented, have not undergone any form of quality control. These data are not guaranteed to be valid or correct.
Go to home page.
Go to station list.
Go to home page.

Downstream station:


Previous Day
Next Day
Current Day
    
SHEF ID:       LCGO2     Spring Creek at Locust Grove
STATION TYPE:  

               PRECIP     STAGE  RIV-FLOW   VOLTAGE  BAT-LOAD
                   in        ft       cfs      volt      volt
              Ccp-Rev   Ccp-Rev   Ccp-Rev   Ccp-Rev   Ccp-Rev
(US/Central)
05/21 00:00      1.69     13.28       215     12.73     12.65
05/21 01:00      0.14     13.39       257     12.65     12.57
05/21 02:00      0.45     13.45       282     12.65     12.57
05/21 03:00      0.01     13.49       299     12.65     12.57
05/21 04:00      0.00     13.50       303     12.65     12.57
05/21 05:00      0.00     13.55       325     12.57     12.49
05/21 06:00      0.00     13.61       353     12.57     12.49
05/21 07:00      0.00     13.59       343     12.65     12.57
05/21 08:00      0.00     13.76       427     12.57     12.57
05/21 09:00      0.80     14.00       560     12.57     12.49
05/21 10:00      0.39     14.35       789     12.57     12.49
05/21 11:00      0.01     14.73      1083     13.29     12.97
05/21 12:00      0.00     15.44      1763     13.53     13.44
05/21 13:00      0.02     16.06      2497     13.84     13.37
05/21 14:00      0.02     16.39      2942     13.68     13.29
05/21 15:00      0.00     16.49      3085     13.92     13.29
05/21 16:00      0.00     16.52      3128     13.68     13.21
05/21 17:00      0.00     16.43      2999     14.16     13.21
05/21 18:00      0.00     16.36      2900     13.29     13.21
05/21 19:00      0.00     16.39      2942     13.53     13.13
05/21 20:00      0.00     16.49      3085     13.13     13.05
05/21 21:00      ----      ----      ----      ----      ----
05/21 22:00      ----      ----      ----      ----      ----
05/21 23:00      ----      ----      ----      ----      ----